Latest Weather Observations for Cocos Island

IDW60801

Issued at 2:43 pm WST Thursday 18 August 2022 (issued every 10 minutes, with the page automatically refreshed every 10 minutes)

About weather observations | Map of weather stations | Latest weather observations for WA | Other Formats
Station Details ID: 200284 Name: COCOS ISLAND AIRPORT Lat: -12.19 Lon: 96.83 Height: 3.0 m
Data from the previous 72 hours. | See also: Recent months at Cocos Island
Date/Time
WST
Temp
°C
App
Temp
°C
Dew
Point
°C
Rel
Hum
%
Delta-T
°C
Wind Press
QNH
hPa
Press
MSL
hPa
Rain since
9am
mm
Dir  Spd
km/h
Gust
km/h
Spd
kts
Gust
kts
18/02:33pm 25.6 23.5 23.7 89 1.3 SE 41 63 22 34 1012.4 1012.4 0.8
18/02:32pm 25.8 23.6 23.5 87 1.6 SE 41 63 22 34 1012.4 1012.4 0.6
18/02:30pm 26.4 24.8 23.9 86 1.7 SE 39 50 21 27 1012.3 1012.3 0.6
18/02:23pm 26.4 24.8 23.9 86 1.7 SE 39 50 21 27 1012.3 1012.3 0.6
18/02:04pm 25.6 23.5 23.7 89 1.3 SE 41 59 22 32 1012.6 1012.6 0.6
18/02:03pm 25.6 23.0 23.5 88 1.4 SE 43 59 23 32 1012.6 1012.6 0.6
18/02:00pm 26.1 23.8 23.4 85 1.8 SE 41 54 22 29 1012.6 1012.6 0.6
18/01:49pm 26.1 25.0 24.1 89 1.4 SE 37 48 20 26 1012.8 1012.8 0.6
18/01:30pm 24.7 23.1 23.3 92 1.0 ESE 37 61 20 33 1013.0 1013.0 0.4
18/01:23pm 25.4 23.8 23.3 88 1.4 SE 37 61 20 33 1013.2 1013.2 0.4
18/01:16pm 25.9 24.5 23.6 87 1.6 SE 37 56 20 30 1013.1 1013.1 0.2
18/01:03pm 25.4 23.7 23.8 91 1.1 SE 39 57 21 31 1013.3 1013.3 0.2
18/01:00pm 25.2 23.0 23.6 91 1.1 SE 41 57 22 31 1013.4 1013.4 0.2
18/12:56pm 25.7 23.4 23.4 87 1.6 SE 41 57 22 31 1013.5 1013.5 0.2
18/12:41pm 26.3 23.4 23.4 84 2.0 SE 44 57 24 31 1013.4 1013.4 0.2
18/12:34pm 26.1 24.2 23.4 85 1.8 SE 39 57 21 31 1013.5 1013.5 0.2
18/12:30pm 25.9 23.6 23.4 86 1.7 SE 41 50 22 27 1013.6 1013.6 0.2
18/12:22pm 25.5 23.2 23.4 88 1.4 SE 41 50 22 27 1013.7 1013.7 0.2
18/12:00pm 26.1 22.9 22.8 82 2.2 SE 44 57 24 31 1013.8 1013.8 0.0
18/11:30am 25.8 23.4 23.8 89 1.4 SE 43 57 23 31 1014.0 1014.0 0.0
18/11:18am 25.6 23.5 23.8 90 1.2 SE 41 48 22 26 1014.1 1014.1 0.0
18/11:00am 24.1 20.8 22.2 89 1.3 SE 43 67 23 36 1014.3 1014.3 3.2
18/10:57am 24.9 21.6 22.2 85 1.8 SE 43 67 23 36 1014.4 1014.4 2.8
18/10:56am 25.6 22.7 22.3 82 2.2 SE 41 65 22 35 1014.3 1014.3 2.4
18/10:30am 25.7 22.5 22.8 84 2.0 SE 44 57 24 31 1014.0 1014.0 2.4
18/10:02am 25.5 22.9 22.8 85 1.8 SE 41 59 22 32 1014.0 1014.0 2.4
18/10:00am 25.8 23.9 23.5 87 1.6 SE 39 54 21 29 1013.9 1013.9 2.4
18/09:45am 24.9 21.9 23.1 90 1.2 SE 44 63 24 34 1013.8 1013.8 2.4
18/09:44am 24.8 21.3 23.0 90 1.2 SE 46 63 25 34 1013.8 1013.8 2.4
18/09:41am 24.9 21.9 22.8 88 1.4 SE 43 63 23 34 1013.8 1013.8 2.4
18/09:30am 24.8 21.8 23.2 91 1.1 SE 44 59 24 32 1013.7 1013.7 2.4
18/09:27am 24.5 20.9 22.8 90 1.1 SE 46 59 25 32 1013.7 1013.7 2.4
18/09:14am 25.5 23.0 23.0 86 1.7 SE 41 56 22 30 1013.4 1013.4 2.4
18/09:00am 24.8 22.1 23.4 92 1.0 SE 43 56 23 30 1013.4 1013.4 2.4
18/08:56am 25.0 22.2 23.1 89 1.3 SE 43 56 23 30 1013.4 1013.4 2.4
18/08:42am 25.2 21.9 22.3 84 1.9 SE 43 57 23 31 1013.2 1013.2 2.4
18/08:30am 24.3 21.7 22.9 92 0.9 SE 41 59 22 32 1013.1 1013.1 2.4
18/08:21am 24.9 22.3 22.8 88 1.4 SE 41 61 22 33 1013.1 1013.1 2.2
18/08:19am 25.5 22.4 22.6 84 2.0 SE 43 61 23 33 1013.0 1013.0 1.6
18/08:01am 24.7 23.0 23.1 91 1.1 SE 37 48 20 26 1012.9 1012.9 1.6
18/08:00am 24.8 23.2 23.2 91 1.1 SE 37 48 20 26 1012.9 1012.9 1.6
18/07:48am 24.3 21.3 22.2 88 1.4 SE 41 56 22 30 1012.7 1012.7 1.6
18/07:31am 24.9 22.4 23.1 90 1.2 SE 41 52 22 28 1012.6 1012.6 1.6
18/07:30am 24.9 22.1 23.1 90 1.2 SE 43 54 23 29 1012.6 1012.6 1.6
18/07:10am 24.7 22.3 22.6 88 1.4 SE 39 56 21 30 1012.7 1012.7 1.0
18/07:00am 25.4 22.5 22.3 83 2.1 SE 41 56 22 30 1012.4 1012.4 0.6
18/06:35am 25.0 22.7 22.7 87 1.5 SE 39 52 21 28 1012.5 1012.5 0.6
18/06:30am 25.1 22.9 22.8 87 1.6 SE 39 50 21 27 1012.4 1012.4 0.6
18/06:15am 24.8 21.6 22.5 87 1.5 SE 43 57 23 31 1012.5 1012.5 0.4
18/06:00am 25.3 22.7 22.2 83 2.1 SE 39 52 21 28 1012.3 1012.3 0.4
18/05:30am 24.8 22.5 22.7 88 1.4 SE 39 52 21 28 1012.2 1012.2 0.4
18/05:12am 24.8 22.5 22.7 88 1.4 SE 39 54 21 29 1012.3 1012.3 0.4
18/05:00am 24.3 21.6 22.6 90 1.1 SE 41 61 22 33 1012.4 1012.4 0.4
18/04:54am 24.1 21.0 22.0 88 1.4 SE 41 61 22 33 1012.5 1012.5 0.4
18/04:51am 25.0 22.5 22.3 85 1.8 SE 39 61 21 33 1012.4 1012.4 0.4
18/04:30am 24.7 22.5 22.2 86 1.7 SE 37 50 20 27 1012.3 1012.3 0.2
18/04:16am 24.1 21.7 22.5 91 1.1 SE 39 57 21 31 1012.5 1012.5 0.2
18/04:11am 24.4 21.5 22.3 88 1.4 SE 41 57 22 31 1012.6 1012.6 0.2
18/04:10am 24.6 22.1 22.3 87 1.5 SE 39 57 21 31 1012.7 1012.7 0.2
18/04:00am 25.1 21.4 21.8 82 2.2 SE 44 56 24 30 1012.6 1012.6 0.2
18/03:30am 25.5 22.4 22.0 81 2.3 SE 41 56 22 30 1013.0 1013.0 0.2
18/03:00am 24.7 22.1 22.2 86 1.7 SE 39 59 21 32 1013.3 1013.3 0.2
18/02:47am 25.8 22.9 21.5 77 2.9 SE 39 57 21 31 1013.5 1013.5 0.2
18/02:30am 25.5 23.4 21.6 79 2.6 SE 35 52 19 28 1013.5 1013.5 0.2
18/02:00am 24.6 21.4 22.5 88 1.4 SE 43 54 23 29 1014.0 1014.0 0.2
18/01:30am 25.6 22.4 21.1 76 3.0 SE 39 57 21 31 1014.3 1014.3 0.2
18/01:28am 25.6 22.8 21.1 76 3.0 SE 37 57 20 31 1014.3 1014.3 0.2
18/01:00am 25.6 21.9 21.5 78 2.7 SE 43 59 23 32 1014.4 1014.4 0.2
18/12:57am 25.5 22.6 21.6 79 2.6 SE 39 59 21 32 1014.4 1014.4 0.2
18/12:30am 25.5 23.1 21.8 80 2.5 SE 37 50 20 27 1014.4 1014.4 0.2
18/12:20am 25.6 23.4 22.1 81 2.3 SSE 37 54 20 29 1014.5 1014.5 0.2
18/12:10am 25.1 23.7 22.2 84 1.9 SE 33 52 18 28 1014.6 1014.6 0.2
18/12:02am 24.7 21.7 21.4 82 2.2 SE 39 52 21 28 1014.8 1014.8 0.2
18/12:00am 25.5 23.0 21.6 79 2.6 SE 37 46 20 25 1014.8 1014.8 0.2
 
Date/Time
WST
Temp
°C
App
Temp
°C
Dew
Point
°C
Rel
Hum
%
Delta-T
°C
Wind Press
QNH
hPa
Press
MSL
hPa
Rain since
9am
mm
Dir  Spd
km/h
Gust
km/h
Spd
kts
Gust
kts
17/11:30pm 25.8 23.4 21.9 79 2.6 SE 37 54 20 29 1014.6 1014.6 0.2
17/11:00pm 25.6 22.3 21.5 78 2.7 SE 41 56 22 30 1014.6 1014.6 0.2
17/10:42pm 25.9 24.0 22.0 79 2.6 SE 35 54 19 29 1014.7 1014.7 0.2
17/10:30pm 26.0 22.8 21.7 77 2.9 SE 41 52 22 28 1014.7 1014.7 0.2
17/10:18pm 25.8 23.3 21.7 78 2.7 SE 37 56 20 30 1014.8 1014.8 0.2
17/10:00pm 25.4 22.6 21.7 80 2.5 SE 39 52 21 28 1014.7 1014.7 0.2
17/09:30pm 26.1 23.4 22.0 78 2.7 SE 39 52 21 28 1014.6 1014.6 0.2
17/09:00pm 26.0 22.8 21.7 77 2.9 SE 41 54 22 29 1014.3 1014.3 0.2
17/08:30pm 25.7 23.6 21.6 78 2.7 SE 35 48 19 26 1014.1 1014.1 0.2
17/08:07pm 25.5 23.2 22.0 81 2.3 SE 37 56 20 30 1013.9 1013.9 0.2
17/08:00pm 25.3 21.5 21.4 79 2.6 SE 43 57 23 31 1013.9 1013.9 0.2
17/07:30pm 25.7 22.4 20.9 75 3.2 SE 39 54 21 29 1013.6 1013.6 0.2
17/07:03pm 25.4 23.7 21.7 80 2.5 SE 33 54 18 29 1013.4 1013.4 0.2
17/07:00pm 25.3 23.5 21.6 80 2.5 SE 33 44 18 24 1013.3 1013.3 0.2
17/06:40pm 25.9 23.1 21.8 78 2.7 SE 39 57 21 31 1013.1 1013.1 0.2
17/06:30pm 25.6 22.4 21.7 79 2.6 SE 41 50 22 27 1013.0 1013.0 0.2
17/06:00pm 25.9 22.4 21.8 78 2.7 SE 43 54 23 29 1013.1 1013.1 0.2
17/05:43pm 26.1 22.5 21.7 77 2.9 SE 43 61 23 33 1013.0 1013.0 0.2
17/05:30pm 26.2 22.3 21.2 74 3.3 SE 43 59 23 32 1012.9 1012.9 0.2
17/05:15pm 26.3 22.4 21.1 73 3.4 SE 43 61 23 33 1012.8 1012.8 0.2
17/05:00pm 26.7 23.1 21.7 74 3.3 SE 43 56 23 30 1012.8 1012.8 0.2
17/04:30pm 26.9 24.3 22.1 75 3.2 SE 39 52 21 28 1012.6 1012.6 0.2
17/04:00pm 26.5 22.8 21.5 74 3.3 SE 43 54 23 29 1012.7 1012.7 0.2
17/03:30pm 26.9 24.2 21.9 74 3.3 SE 39 50 21 27 1012.9 1012.9 0.2
17/03:02pm 26.0 22.4 21.7 77 2.9 SE 43 61 23 33 1013.4 1013.4 0.2
17/03:00pm 26.3 22.9 21.3 74 3.3 SE 41 54 22 29 1013.3 1013.3 0.2
17/02:39pm 26.7 24.9 22.3 77 3.0 SE 35 46 19 25 1013.5 1013.5 0.2
17/02:31pm 25.8 23.4 22.5 82 2.2 SE 39 57 21 31 1013.6 1013.6 0.2
17/02:30pm 25.7 22.9 22.4 82 2.2 SE 41 57 22 31 1013.6 1013.6 0.2
17/02:25pm 25.0 21.4 22.1 84 1.9 SE 44 59 24 32 1013.7 1013.7 0.2
17/02:19pm 26.3 23.3 22.2 78 2.8 SE 41 59 22 32 1013.7 1013.7 0.2
17/02:00pm 26.5 23.6 21.5 74 3.3 SE 39 48 21 26 1013.9 1013.9 0.2
17/01:30pm 26.9 24.4 22.3 76 3.1 SE 39 52 21 28 1014.4 1014.4 0.2
17/01:00pm 26.8 24.2 22.2 76 3.1 SE 39 52 21 28 1014.7 1014.7 0.2
17/12:30pm 26.5 25.1 22.3 78 2.8 SE 33 46 18 25 1015.1 1015.1 0.0
17/12:00pm 25.4 23.2 22.1 82 2.2 SSE 37 50 20 27 1015.5 1015.5 0.0
17/11:30am 25.6 23.4 21.5 78 2.7 SSE 35 50 19 27 1015.6 1015.6 0.0
17/11:00am 26.0 23.9 21.7 77 2.9 SSE 35 50 19 27 1015.6 1015.6 0.2
17/10:30am 25.6 23.5 21.7 79 2.6 SE 35 46 19 25 1015.5 1015.5 0.2
17/10:00am 25.4 22.9 21.7 80 2.5 SE 37 50 20 27 1015.3 1015.3 0.2
17/09:40am 25.0 23.5 22.1 84 1.9 SE 33 46 18 25 1015.0 1015.0 0.2
17/09:30am 24.5 22.6 22.0 86 1.7 SE 35 46 19 25 1015.0 1015.0 0.2
17/09:19am 24.6 21.9 21.3 82 2.2 SE 37 56 20 30 1015.0 1015.0 0.2
17/09:17am 24.7 22.1 21.4 82 2.2 SE 37 50 20 27 1015.0 1015.0 0.2
17/09:00am 25.5 23.5 20.7 75 3.1 SSE 32 44 17 24 1014.7 1014.7 0.2
17/08:46am 25.2 23.5 21.3 79 2.6 SSE 32 43 17 23 1014.6 1014.6 0.2
17/08:30am 24.4 22.2 21.5 84 1.9 SE 35 54 19 29 1014.6 1014.6 0.2
17/08:29am 24.4 22.2 21.5 84 1.9 SE 35 54 19 29 1014.6 1014.6 0.2
17/08:26am 25.1 23.2 21.4 80 2.4 SSE 33 54 18 29 1014.6 1014.6 0.2
17/08:00am 25.2 23.3 20.9 77 2.8 SSE 32 44 17 24 1014.3 1014.3 0.2
17/07:30am 24.8 22.2 20.7 78 2.7 SSE 35 48 19 26 1014.1 1014.1 0.2
17/07:00am 25.0 23.0 20.7 77 2.8 SSE 32 44 17 24 1014.0 1014.0 0.2
17/06:30am 24.8 22.9 20.9 79 2.6 SSE 32 48 17 26 1013.8 1013.8 0.2
17/06:00am 24.6 22.0 20.7 79 2.5 SE 35 46 19 25 1013.7 1013.7 0.2
17/05:30am 24.3 21.9 21.0 82 2.2 SE 35 48 19 26 1013.6 1013.6 0.2
17/05:00am 24.8 22.9 20.9 79 2.6 SSE 32 46 17 25 1013.7 1013.7 0.2
17/04:30am 24.6 22.9 21.3 82 2.2 SSE 32 44 17 24 1013.8 1013.8 0.2
17/04:14am 24.4 23.3 21.7 85 1.8 SSE 30 48 16 26 1013.9 1013.9 0.2
17/04:00am 24.5 22.9 21.8 85 1.8 SSE 33 43 18 23 1014.0 1014.0 0.2
17/03:30am 24.4 22.8 21.5 84 1.9 SSE 32 43 17 23 1014.1 1014.1 0.2
17/03:00am 24.8 23.8 21.3 81 2.3 SSE 28 39 15 21 1014.0 1014.0 0.2
17/02:30am 23.7 23.2 22.1 91 1.1 SSE 28 43 15 23 1014.3 1014.3 0.2
17/02:17am 23.8 22.2 21.5 87 1.5 SSE 32 44 17 24 1014.5 1014.5 0.2
17/02:00am 23.5 21.3 21.4 88 1.4 SSE 35 48 19 26 1014.6 1014.6 0.2
17/01:59am 23.6 21.4 21.5 88 1.4 SE 35 48 19 26 1014.7 1014.7 0.2
17/01:30am 25.0 22.9 20.5 76 2.9 SSE 32 43 17 23 1014.7 1014.7 0.2
17/01:00am 24.0 21.3 21.3 85 1.8 SE 37 48 20 26 1014.9 1014.9 0.2
17/12:30am 25.2 22.7 20.2 74 3.3 SSE 33 50 18 27 1014.8 1014.8 0.2
17/12:00am 25.1 22.6 20.1 74 3.2 SSE 33 50 18 27 1014.9 1014.9 0.2
 
Date/Time
WST
Temp
°C
App
Temp
°C
Dew
Point
°C
Rel
Hum
%
Delta-T
°C
Wind Press
QNH
hPa
Press
MSL
hPa
Rain since
9am
mm
Dir  Spd
km/h
Gust
km/h
Spd
kts
Gust
kts
16/11:30pm 25.1 22.2 20.1 74 3.2 SSE 35 48 19 26 1014.9 1014.9 0.2
16/11:00pm 25.1 22.7 20.4 75 3.1 SSE 33 44 18 24 1015.0 1015.0 0.2
16/10:30pm 25.0 22.2 20.3 75 3.1 SSE 35 50 19 27 1014.9 1014.9 0.2
16/10:00pm 25.1 22.2 20.1 74 3.2 SSE 35 48 19 26 1014.9 1014.9 0.2
16/09:30pm 25.0 22.3 19.6 72 3.5 SSE 33 46 18 25 1014.8 1014.8 0.2
16/09:00pm 24.9 22.1 19.5 72 3.5 SSE 33 46 18 25 1014.3 1014.3 0.2
16/08:30pm 24.8 21.9 20.1 75 3.0 SSE 35 50 19 27 1013.9 1013.9 0.2
16/08:00pm 24.5 22.4 20.6 79 2.5 SSE 32 44 17 24 1013.7 1013.7 0.2
16/07:53pm 24.3 22.3 20.8 81 2.3 SSE 32 44 17 24 1013.7 1013.7 0.2
16/07:34pm 23.4 20.7 20.5 84 1.9 SSE 35 46 19 25 1013.8 1013.8 0.0
16/07:30pm 24.6 21.9 20.5 78 2.7 SSE 35 50 19 27 1013.6 1013.6 0.0
16/07:25pm 24.6 21.4 20.3 77 2.8 SSE 37 50 20 27 1013.5 1013.5 0.0
16/07:11pm 23.8 20.8 20.7 83 2.0 SSE 37 48 20 26 1013.4 1013.4 0.0
16/07:00pm 24.9 22.3 20.6 77 2.8 SSE 35 48 19 26 1013.3 1013.3 0.0
16/06:30pm 25.2 22.6 20.7 76 2.9 SSE 35 50 19 27 1013.3 1013.3 0.0
16/06:00pm 25.3 22.4 20.1 73 3.4 SSE 35 46 19 25 1013.1 1013.1 0.0
16/05:30pm 25.1 22.7 20.4 75 3.1 SSE 33 44 18 24 1013.0 1013.0 0.0
16/05:00pm 25.0 22.8 20.3 75 3.1 SSE 32 43 17 23 1013.0 1013.0 0.0
16/04:30pm 26.0 23.4 20.6 72 3.5 SSE 35 48 19 26 1012.9 1012.9 0.0
16/04:10pm 25.8 23.5 20.1 71 3.7 SSE 32 50 17 27 1013.0 1013.0 0.0
16/04:00pm 25.8 22.4 19.9 70 3.8 SSE 37 50 20 27 1013.0 1013.0 0.0
16/03:30pm 26.6 24.1 20.9 71 3.8 SSE 35 50 19 27 1013.1 1013.1 0.0
16/03:00pm 26.1 22.7 21.3 75 3.2 SSE 41 52 22 28 1013.3 1013.3 0.0
16/02:30pm 25.9 22.7 21.1 75 3.2 SSE 39 48 21 26 1013.6 1013.6 0.0
16/02:00pm 25.8 24.0 20.4 72 3.5 SSE 30 41 16 22 1013.9 1013.9 0.0
16/01:30pm 25.8 24.8 21.9 79 2.6 SSE 30 39 16 21 1014.2 1014.2 0.0
16/01:10pm 25.0 24.0 21.9 83 2.1 SSE 30 43 16 23 1014.4 1014.4 0.0
16/01:00pm 24.3 22.7 21.6 85 1.8 SE 32 39 17 21 1014.5 1014.5 0.0
16/12:54pm 23.9 21.8 21.6 87 1.5 SE 35 46 19 25 1014.5 1014.5 0.0
16/12:30pm 25.4 24.6 20.9 76 3.0 SSE 26 39 14 21 1014.6 1014.6 0.0
16/12:00pm 26.0 24.9 21.7 77 2.9 SSE 30 43 16 23 1014.7 1014.7 0.0
16/11:30am 25.7 24.5 20.9 75 3.2 SSE 28 39 15 21 1014.8 1014.8 0.0
16/11:00am 25.6 24.7 21.5 78 2.7 SSE 28 41 15 22 1014.9 1014.9 1.8
16/10:30am 25.1 24.5 21.2 79 2.6 SSE 26 35 14 19 1014.8 1014.8 1.8
16/10:00am 23.3 23.5 22.1 93 0.8 SE 24 33 13 18 1014.6 1014.6 1.8
16/09:58am 23.5 23.9 22.5 94 0.7 SE 24 37 13 20 1014.6 1014.6 1.8
16/09:32am 24.0 23.2 21.7 87 1.5 SE 28 39 15 21 1014.2 1014.2 0.2
16/09:30am 24.2 23.4 21.7 86 1.7 SE 28 39 15 21 1014.2 1014.2 0.0
16/09:00am 24.8 24.6 20.5 77 2.8 SE 22 35 12 19 1013.7 1013.7 0.0
16/08:30am 25.1 24.5 21.2 79 2.6 SE 26 37 14 20 1013.4 1013.4 0.0
16/08:00am 24.8 23.9 20.7 78 2.7 SSE 26 33 14 18 1013.1 1013.1 0.0
16/07:30am 24.2 23.7 20.7 81 2.3 SSE 24 35 13 19 1013.0 1013.0 0.0
16/07:00am 24.3 23.7 21.2 83 2.0 SE 26 37 14 20 1012.9 1012.9 0.0
16/06:30am 24.4 23.7 21.1 82 2.2 SE 26 35 14 19 1012.7 1012.7 0.0
16/06:00am 23.8 23.5 21.1 85 1.8 SSE 24 37 13 20 1012.6 1012.6 0.0
16/05:30am 24.2 23.2 20.5 80 2.4 SSE 26 35 14 19 1012.5 1012.5 0.0
16/05:00am 24.5 23.4 20.2 77 2.8 SSE 26 35 14 19 1012.6 1012.6 0.0
16/04:30am 23.9 21.6 20.6 82 2.2 S 33 41 18 22 1013.0 1013.0 0.0
16/04:00am 24.7 22.7 20.8 79 2.6 S 32 39 17 21 1012.9 1012.9 0.0
16/03:30am 25.3 23.2 19.7 71 3.6 S 30 35 16 19 1012.9 1012.9 0.0
16/03:00am 25.2 22.7 18.9 68 4.0 S 30 37 16 20 1013.2 1013.2 0.0
16/02:30am 25.3 22.4 18.0 64 4.6 S 30 39 16 21 1013.6 1013.6 0.0
16/02:00am 25.4 23.2 18.8 67 4.2 S 28 35 15 19 1013.8 1013.8 0.0
16/01:30am 25.4 23.0 19.1 68 4.0 S 30 41 16 22 1014.1 1014.1 0.0
16/01:00am 25.5 22.5 18.7 66 4.3 S 32 39 17 21 1014.2 1014.2 0.0
16/12:30am 25.5 22.2 18.4 65 4.5 S 33 41 18 22 1014.3 1014.3 0.0
16/12:00am 25.6 22.9 19.3 68 4.0 S 32 41 17 22 1014.3 1014.3 0.0
 
Date/Time
WST
Temp
°C
App
Temp
°C
Dew
Point
°C
Rel
Hum
%
Delta-T
°C
Wind Press
QNH
hPa
Press
MSL
hPa
Rain since
9am
mm
Dir  Spd
km/h
Gust
km/h
Spd
kts
Gust
kts
15/11:30pm 25.6 23.1 19.7 70 3.8 S 32 39 17 21 1014.2 1014.2 0.0
15/11:00pm 25.7 23.5 20.3 72 3.5 S 32 39 17 21 1014.0 1014.0 0.0
15/10:30pm 25.5 23.7 20.3 73 3.4 S 30 37 16 20 1013.9 1013.9 0.0
15/10:00pm 25.5 23.4 20.5 74 3.3 S 32 39 17 21 1013.9 1013.9 0.0
15/09:30pm 25.6 23.9 20.6 74 3.3 S 30 37 16 20 1014.0 1014.0 0.0
15/09:00pm 25.8 24.0 20.4 72 3.5 S 30 37 16 20 1013.6 1013.6 0.0
15/08:30pm 25.9 23.8 19.8 69 4.0 S 30 41 16 22 1013.2 1013.2 0.0
15/08:00pm 25.8 23.7 19.7 69 3.9 S 30 39 16 21 1012.9 1012.9 0.0
15/07:30pm 25.6 24.4 20.8 75 3.2 S 28 35 15 19 1012.6 1012.6 0.0
15/07:00pm 25.5 24.0 21.0 76 3.0 S 30 35 16 19 1012.7 1012.7 0.0
15/06:30pm 25.7 23.2 20.9 75 3.2 S 35 41 19 22 1012.6 1012.6 0.0
15/06:00pm 26.2 25.4 20.8 72 3.6 S 26 33 14 18 1012.3 1012.3 0.0
15/05:30pm 26.5 25.3 20.8 71 3.8 S 28 35 15 19 1012.1 1012.1 0.0
15/05:00pm 27.0 26.5 21.5 72 3.7 S 26 33 14 18 1011.9 1011.9 0.0
15/04:30pm 27.2 26.6 21.2 69 4.0 S 26 33 14 18 1011.7 1011.7 0.0

Other formats

Comma delimited format used in spreadsheet applications
http://www.bom.gov.au/fwo/IDW60801/IDW60801.96996.axf

JavaScript Object Notation format (JSON) in row-major order
http://www.bom.gov.au/fwo/IDW60801/IDW60801.96996.json

Data quality

Most of these data are generated automatically and are frequently updated. Quality checks on data are not normally performed. It is possible for incorrect values to appear. Refer to information at About Latest Weather Observations and please check the disclaimer before using these data.